Chapel Allerton, United Kingdom
Current Conditions -  °F | °C
As of 8:50 PM on Friday 19 Dec 2014 (Local Time) from EGNM Reporting Station
Rain Showers Rain Showers  
Wind Chill: 30°   Ceiling: Unl
Heat Index: 41°   Visibility: 6mi
Dew Point: 37°   Wind: 26mph
Humidity: 87%   Direction: 260°W
Pressure: 29.94"   Gusts: 41mph
Location:  53.83°N, 1.54°W
Report Text: EGNM 192050Z 26023G36KT 220V290 9999 -SHRA FEW030 05/03 Q1014
Loading
Personal Weather Stations






























Interactive Weather Map New forecast layout! Learn more

10-Day Weather Forecast

Advertisements
Track Severe Weather on mobile